Time;durP1;ratioP1;P1;durP2;ratioP2;P2;SDS_P1;SDS_P2;PMS_P1;PMS_P2;Temp;Humidity;BMP_temperature;BMP_pressure;BME280_temperature;BME280_humidity;BME280_pressure;Samples;Min_cycle;Max_cycle;Signal;HPM_P1;HPM_P2
2022/06/19 00:02:18;;;;;;;18.58;4.45;;;;;;;-141.50;100.00;63355.56;5075875;28;20066;-80
2022/06/19 00:04:48;;;;;;;21.00;4.93;;;;;;;-141.50;100.00;63355.56;5077098;28;20049;-79
2022/06/19 00:07:17;;;;;;;20.27;5.00;;;;;;;-141.50;100.00;63355.56;5060841;28;20082;-79
2022/06/19 00:09:48;;;;;;;18.40;4.60;;;;;;;-141.50;100.00;63355.56;5075921;28;20479;-80
2022/06/19 00:12:18;;;;;;;21.58;5.15;;;;;;;-141.50;100.00;63355.56;5074773;28;20080;-80
2022/06/19 00:14:45;;;;;;;19.92;5.15;;;;;;;-141.50;100.00;63355.56;5093577;28;20040;-81
2022/06/19 00:17:13;;;;;;;23.55;4.88;;;;;;;-141.50;100.00;63355.56;5077031;28;20052;-82
2022/06/19 00:19:41;;;;;;;18.48;5.50;;;;;;;-141.50;100.00;63355.56;5075192;28;20060;-81
2022/06/19 00:22:08;;;;;;;27.48;6.15;;;;;;;-141.50;100.00;63355.56;5054105;28;20049;-79
2022/06/19 00:24:35;;;;;;;20.90;4.90;;;;;;;-141.50;100.00;63355.56;5072424;28;20057;-79
2022/06/19 00:27:03;;;;;;;19.30;5.25;;;;;;;-141.50;100.00;63355.56;5054136;28;20056;-79
2022/06/19 00:29:29;;;;;;;24.27;5.13;;;;;;;-141.50;100.00;63355.56;5072505;28;20101;-80
2022/06/19 00:31:56;;;;;;;20.48;4.75;;;;;;;-141.50;100.00;63355.56;5055096;28;20104;-80
2022/06/19 00:34:23;;;;;;;22.08;5.72;;;;;;;-141.50;100.00;63355.56;5055022;28;20193;-80
2022/06/19 00:36:51;;;;;;;22.30;5.05;;;;;;;-141.50;100.00;63355.56;5072795;28;20098;-79
2022/06/19 00:39:19;;;;;;;19.98;4.82;;;;;;;-141.50;100.00;63355.56;5055419;28;20048;-81
2022/06/19 00:41:48;;;;;;;20.90;5.38;;;;;;;-141.50;100.00;63355.56;5072601;28;20048;-79
2022/06/19 00:44:15;;;;;;;18.98;5.50;;;;;;;-141.50;100.00;63355.56;5054866;28;20209;-81
2022/06/19 00:46:47;;;;;;;15.65;4.72;;;;;;;-141.50;100.00;63355.56;5071654;28;20477;-80
2022/06/19 00:49:17;;;;;;;27.67;5.10;;;;;;;-141.50;100.00;63355.56;5073831;28;20056;-81
2022/06/19 00:52:00;;;;;;;19.95;4.65;;;;;;;-141.50;100.00;63355.56;5072516;28;20465;-80
2022/06/19 00:54:31;;;;;;;18.77;4.53;;;;;;;-141.50;100.00;63355.56;5072911;28;20049;-80
2022/06/19 00:56:58;;;;;;;23.23;5.28;;;;;;;-141.50;100.00;63355.56;5075725;28;20067;-80
2022/06/19 00:59:25;;;;;;;19.10;4.60;;;;;;;-141.50;100.00;63355.56;5074751;28;20053;-80
2022/06/19 01:01:52;;;;;;;20.67;5.22;;;;;;;-141.50;100.00;63355.56;5058267;28;20521;-79
2022/06/19 01:04:33;;;;;;;14.77;4.78;;;;;;;-141.50;100.00;63355.56;5071111;28;20048;-79
2022/06/19 01:07:05;;;;;;;18.50;5.05;;;;;;;-141.50;100.00;63355.56;5093804;28;20048;-79
2022/06/19 01:09:32;;;;;;;24.50;5.72;;;;;;;-141.50;100.00;63355.56;5085487;28;20056;-82
2022/06/19 01:12:04;;;;;;;23.98;5.00;;;;;;;-141.50;100.00;63355.56;5079291;28;20098;-80
2022/06/19 01:14:32;;;;;;;19.67;4.72;;;;;;;-141.50;100.00;63355.56;5079479;28;20049;-80
2022/06/19 01:17:02;;;;;;;28.30;5.43;;;;;;;-141.50;100.00;63355.56;5079083;28;20052;-80
2022/06/19 01:19:33;;;;;;;22.38;4.85;;;;;;;-141.50;100.00;63355.56;5071372;28;20127;-81
2022/06/19 01:22:08;;;;;;;20.40;5.00;;;;;;;-141.50;100.00;63355.56;5084628;28;20083;-80
2022/06/19 01:25:01;;;;;;;23.17;5.05;;;;;;;-141.50;100.00;63355.56;5079464;28;20059;-82
2022/06/19 01:30:18;;;;;;;16.33;4.78;;;;;;;-141.50;100.00;63355.56;5073716;28;20523;-80
2022/06/19 01:32:49;;;;;;;23.55;4.70;;;;;;;-141.50;100.00;63355.56;5072886;28;20045;-80
2022/06/19 01:35:18;;;;;;;24.67;4.97;;;;;;;-141.50;100.00;63355.56;5072113;28;20722;-79
2022/06/19 01:37:46;;;;;;;21.60;4.60;;;;;;;-141.50;100.00;63355.56;5085543;28;20064;-80
2022/06/19 01:40:18;;;;;;;16.55;4.03;;;;;;;-141.50;100.00;63355.56;5091688;28;20054;-79
2022/06/19 01:42:45;;;;;;;11.63;3.75;;;;;;;-141.50;100.00;63355.56;5087033;28;20150;-79
2022/06/19 01:45:12;;;;;;;26.98;5.07;;;;;;;-141.50;100.00;63355.56;5076096;28;20055;-80
2022/06/19 01:47:40;;;;;;;21.13;4.35;;;;;;;-141.50;100.00;63355.56;5075291;28;20052;-80
2022/06/19 01:50:14;;;;;;;19.60;3.60;;;;;;;-141.50;100.00;63355.56;5075588;28;20086;-82
2022/06/19 01:52:45;;;;;;;29.25;3.80;;;;;;;-141.50;100.00;63355.56;5074724;28;20059;-80
2022/06/19 01:55:15;;;;;;;18.92;3.50;;;;;;;-141.50;100.00;63355.56;5074639;28;20110;-81
2022/06/19 01:57:49;;;;;;;18.85;3.70;;;;;;;-141.50;100.00;63355.56;5075043;28;20056;-80
2022/06/19 02:00:23;;;;;;;20.45;3.83;;;;;;;-141.50;100.00;63355.56;5074078;28;20114;-79
2022/06/19 02:03:19;;;;;;;18.20;3.25;;;;;;;-141.50;100.00;63355.56;5072808;28;20510;-81
2022/06/19 02:05:47;;;;;;;16.38;4.38;;;;;;;-141.50;100.00;63355.56;5072562;28;20064;-81
2022/06/19 02:08:15;;;;;;;22.48;3.35;;;;;;;-141.50;100.00;63355.56;5072195;28;20048;-81
2022/06/19 02:10:45;;;;;;;21.10;3.70;;;;;;;-141.50;100.00;63355.56;5071592;28;20090;-82
2022/06/19 02:13:15;;;;;;;13.70;2.90;;;;;;;-141.50;100.00;63355.56;5054357;28;20114;-82
2022/06/19 02:15:47;;;;;;;22.23;3.38;;;;;;;-141.50;100.00;63355.56;5070825;28;20053;-80
2022/06/19 02:18:20;;;;;;;15.90;3.33;;;;;;;-141.50;100.00;63355.56;5073374;28;20105;-80
2022/06/19 02:20:50;;;;;;;25.83;3.40;;;;;;;-141.50;100.00;63355.56;5074613;28;20048;-80
2022/06/19 02:23:25;;;;;;;20.60;3.20;;;;;;;-141.50;100.00;63355.56;5079033;28;20076;-83
2022/06/19 02:25:52;;;;;;;15.70;3.60;;;;;;;-141.50;100.00;63355.56;5058651;28;20422;-82
2022/06/19 02:28:19;;;;;;;21.23;3.30;;;;;;;-141.50;100.00;63355.56;5074668;28;20080;-83
2022/06/19 02:30:50;;;;;;;16.08;3.00;;;;;;;-141.50;100.00;63355.56;5074620;28;20844;-82
2022/06/19 02:33:21;;;;;;;16.23;3.53;;;;;;;-141.50;100.00;63355.56;5083087;28;20063;-82
2022/06/19 02:35:47;;;;;;;18.92;3.15;;;;;;;-141.50;100.00;63355.56;5096253;28;20063;-81
2022/06/19 02:38:19;;;;;;;13.68;3.30;;;;;;;-141.50;100.00;63355.56;5095553;28;20078;-80
2022/06/19 02:40:55;;;;;;;17.08;3.20;;;;;;;-141.50;100.00;63355.56;5067046;28;20052;-82
2022/06/19 02:43:33;;;;;;;15.20;2.97;;;;;;;-141.50;100.00;63355.56;5077455;28;20106;-83
2022/06/19 02:46:02;;;;;;;15.60;2.88;;;;;;;-141.50;100.00;63355.56;5076150;28;20393;-81
2022/06/19 02:48:31;;;;;;;19.52;3.22;;;;;;;-141.50;100.00;63355.56;5058400;28;20178;-83
2022/06/19 02:51:00;;;;;;;13.23;2.67;;;;;;;-141.50;100.00;63355.56;5077301;28;20071;-81
2022/06/19 02:53:28;;;;;;;12.20;3.00;;;;;;;-141.50;100.00;63355.56;5073860;28;20040;-80
2022/06/19 02:55:55;;;;;;;13.75;2.83;;;;;;;-141.50;100.00;63355.56;5074330;28;20116;-80
2022/06/19 02:58:24;;;;;;;22.25;3.40;;;;;;;-141.50;100.00;63355.56;5073993;28;20510;-80
2022/06/19 03:00:51;;;;;;;22.35;2.90;;;;;;;-141.50;100.00;63355.56;5056863;28;20072;-81
2022/06/19 03:03:35;;;;;;;13.80;2.83;;;;;;;-141.50;100.00;63355.56;5056762;28;20070;-83
2022/06/19 03:06:04;;;;;;;11.88;2.97;;;;;;;-141.50;100.00;63355.56;5061195;28;20352;-81
2022/06/19 03:08:34;;;;;;;13.80;2.70;;;;;;;-141.50;100.00;63355.56;5072606;28;20056;-83
2022/06/19 03:11:04;;;;;;;13.63;3.30;;;;;;;-141.50;100.00;63355.56;5075191;28;20525;-82
2022/06/19 03:13:31;;;;;;;9.75;2.95;;;;;;;-141.50;100.00;63355.56;5075062;28;20048;-82
2022/06/19 03:16:07;;;;;;;23.67;3.13;;;;;;;-141.50;100.00;63355.56;5055540;28;20058;-81
2022/06/19 03:18:38;;;;;;;12.15;3.20;;;;;;;-141.50;100.00;63355.56;5074102;28;20513;-82
2022/06/19 03:21:06;;;;;;;16.73;2.92;;;;;;;-141.50;100.00;63355.56;5072605;28;20062;-81
2022/06/19 03:23:33;;;;;;;13.70;2.92;;;;;;;-141.50;100.00;63355.56;5073405;28;20049;-81
2022/06/19 03:26:03;;;;;;;10.13;2.80;;;;;;;-141.50;100.00;63355.56;5073590;28;20592;-81
2022/06/19 03:28:29;;;;;;;10.48;2.78;;;;;;;-141.50;100.00;63355.56;5072758;28;20127;-81
2022/06/19 03:30:56;;;;;;;11.90;2.95;;;;;;;-141.50;100.00;63355.56;5055262;28;20045;-81
2022/06/19 03:33:23;;;;;;;15.85;3.00;;;;;;;-141.50;100.00;63355.56;5065159;28;20045;-80
2022/06/19 03:35:49;;;;;;;13.35;3.25;;;;;;;-141.50;100.00;63355.56;5085079;28;20537;-81
2022/06/19 03:38:17;;;;;;;11.00;3.22;;;;;;;-141.50;100.00;63355.56;5084504;28;20049;-81
2022/06/19 03:40:44;;;;;;;14.82;3.35;;;;;;;-141.50;100.00;63355.56;5085576;28;20105;-80
2022/06/19 03:43:14;;;;;;;14.13;3.53;;;;;;;-141.50;100.00;63355.56;5087236;28;20110;-80
2022/06/19 03:45:43;;;;;;;9.70;2.97;;;;;;;-141.50;100.00;63355.56;5086940;28;20603;-81
2022/06/19 03:48:12;;;;;;;15.40;3.17;;;;;;;-141.50;100.00;63355.56;5069655;28;20070;-81
2022/06/19 03:50:39;;;;;;;17.35;3.40;;;;;;;-141.50;100.00;63355.56;5079854;28;20063;-81
2022/06/19 03:53:06;;;;;;;11.32;3.72;;;;;;;-141.50;100.00;63355.56;5058275;28;20049;-82
2022/06/19 03:55:33;;;;;;;12.23;3.25;;;;;;;-141.50;100.00;63355.56;5075375;28;20460;-80
2022/06/19 03:58:00;;;;;;;13.88;3.20;;;;;;;-141.50;100.00;63355.56;5067360;28;20039;-80
2022/06/19 04:00:26;;;;;;;19.17;3.38;;;;;;;-141.50;100.00;63355.56;5082587;28;20052;-81
2022/06/19 04:02:53;;;;;;;20.75;3.50;;;;;;;-141.50;100.00;63355.56;5073639;28;20052;-82
2022/06/19 04:05:20;;;;;;;14.50;3.60;;;;;;;-141.50;100.00;63355.56;5073004;28;20426;-80
2022/06/19 04:07:48;;;;;;;13.77;3.78;;;;;;;-141.50;100.00;63355.56;5073771;28;20049;-80
2022/06/19 04:10:17;;;;;;;12.88;3.70;;;;;;;-141.50;100.00;63355.56;5073681;28;20060;-79
2022/06/19 04:12:51;;;;;;;12.07;3.58;;;;;;;-141.50;100.00;63355.56;5073610;28;20048;-80
2022/06/19 04:15:18;;;;;;;10.38;3.22;;;;;;;-141.50;100.00;63355.56;5072719;28;20048;-80
2022/06/19 04:17:45;;;;;;;13.75;3.55;;;;;;;-141.50;100.00;63355.56;5071830;28;20482;-80
2022/06/19 04:20:12;;;;;;;13.27;3.67;;;;;;;-141.50;100.00;63355.56;5072514;28;20076;-81
2022/06/19 04:22:42;;;;;;;16.55;3.60;;;;;;;-141.50;100.00;63355.56;5073026;28;20052;-81
2022/06/19 04:25:13;;;;;;;15.43;3.60;;;;;;;-141.50;100.00;63355.56;5075604;28;20056;-82
2022/06/19 04:27:42;;;;;;;20.67;3.85;;;;;;;-141.50;100.00;63355.56;5072229;28;20105;-81
2022/06/19 04:30:10;;;;;;;17.55;4.28;;;;;;;-141.50;100.00;63355.56;5052553;28;20048;-80
2022/06/19 04:32:36;;;;;;;12.63;3.92;;;;;;;-141.50;100.00;63355.56;5071604;28;20187;-80
2022/06/19 04:35:03;;;;;;;11.55;3.35;;;;;;;-141.50;100.00;63355.56;5052623;28;20498;-79
2022/06/19 04:37:30;;;;;;;21.27;4.13;;;;;;;-141.50;100.00;63355.56;5070733;28;20448;-80
2022/06/19 04:39:57;;;;;;;19.42;3.72;;;;;;;-141.50;100.00;63355.56;5073155;28;20044;-81
2022/06/19 04:42:25;;;;;;;15.77;3.50;;;;;;;-141.50;100.00;63355.56;5080338;28;20494;-81
2022/06/19 04:44:51;;;;;;;12.50;3.58;;;;;;;-141.50;100.00;63355.56;5053570;28;20063;-82
2022/06/19 04:47:18;;;;;;;14.43;3.47;;;;;;;-141.50;100.00;63355.56;5053509;28;20135;-82
2022/06/19 04:49:45;;;;;;;11.85;3.88;;;;;;;-141.50;100.00;63355.56;5055050;28;20055;-81
2022/06/19 04:52:12;;;;;;;22.10;3.50;;;;;;;-141.50;100.00;63355.56;5073745;28;20079;-81
2022/06/19 04:54:41;;;;;;;17.10;3.45;;;;;;;-141.50;100.00;63355.56;5074526;28;20143;-82
2022/06/19 04:57:08;;;;;;;21.05;4.47;;;;;;;-141.50;100.00;63355.56;5093170;28;20129;-81
2022/06/19 04:59:35;;;;;;;20.55;3.50;;;;;;;-141.50;100.00;63355.56;5092722;28;20048;-81
2022/06/19 05:02:02;;;;;;;15.27;3.30;;;;;;;-141.50;100.00;63355.56;5074784;28;20056;-81
2022/06/19 05:04:28;;;;;;;11.60;3.38;;;;;;;-141.50;100.00;63355.56;5103182;28;20319;-75
2022/06/19 05:06:55;;;;;;;13.10;3.63;;;;;;;-141.50;100.00;63355.56;5079356;28;20120;-76
2022/06/19 05:09:22;;;;;;;15.48;3.40;;;;;;;-141.50;100.00;63355.56;5073171;28;20110;-74
2022/06/19 05:11:48;;;;;;;15.55;3.40;;;;;;;-141.50;100.00;63355.56;5089505;28;20196;-75
2022/06/19 05:14:15;;;;;;;12.75;3.78;;;;;;;-141.50;100.00;63355.56;5089746;28;20047;-76
2022/06/19 05:16:44;;;;;;;12.93;3.60;;;;;;;-141.50;100.00;63355.56;5088899;28;20117;-75
2022/06/19 05:19:11;;;;;;;20.08;3.65;;;;;;;-141.50;100.00;63355.56;5051446;28;20566;-74
2022/06/19 05:21:40;;;;;;;16.38;3.22;;;;;;;-141.50;100.00;63355.56;5076980;28;20454;-76
2022/06/19 05:24:08;;;;;;;15.23;3.50;;;;;;;-141.50;100.00;63355.56;5077428;28;20076;-75
2022/06/19 05:26:35;;;;;;;15.35;3.10;;;;;;;-141.50;100.00;63355.56;5077764;28;20060;-75
2022/06/19 05:29:04;;;;;;;13.02;3.42;;;;;;;-141.50;100.00;63355.56;5078565;28;20740;-74
2022/06/19 05:31:32;;;;;;;12.18;3.10;;;;;;;-141.50;100.00;63355.56;5072657;28;20436;-75
2022/06/19 05:33:59;;;;;;;14.18;3.67;;;;;;;-141.50;100.00;63355.56;5071465;28;20043;-74
2022/06/19 05:36:33;;;;;;;14.45;3.42;;;;;;;-141.50;100.00;63355.56;5073251;28;20083;-73
2022/06/19 05:39:06;;;;;;;17.60;3.55;;;;;;;-141.50;100.00;63355.56;5075896;28;20567;-75
2022/06/19 05:41:40;;;;;;;12.68;3.00;;;;;;;-141.50;100.00;63355.56;5079255;28;20045;-73
2022/06/19 05:44:11;;;;;;;14.88;3.92;;;;;;;-141.50;100.00;63355.56;5079300;28;20086;-75
2022/06/19 05:46:38;;;;;;;15.35;3.50;;;;;;;-141.50;100.00;63355.56;5058205;28;20053;-76
2022/06/19 05:49:05;;;;;;;15.15;3.75;;;;;;;-141.50;100.00;63355.56;5051443;28;20110;-74
2022/06/19 05:51:32;;;;;;;17.73;3.60;;;;;;;-141.50;100.00;63355.56;5053268;28;20084;-75
2022/06/19 05:53:58;;;;;;;15.35;3.50;;;;;;;-141.50;100.00;63355.56;5073885;28;20418;-75
2022/06/19 05:56:27;;;;;;;20.30;3.70;;;;;;;-141.50;100.00;63355.56;5075975;28;20439;-75
2022/06/19 05:58:54;;;;;;;14.65;3.80;;;;;;;-141.50;100.00;63355.56;5053904;28;20138;-75
2022/06/19 06:01:22;;;;;;;18.20;3.65;;;;;;;-141.50;100.00;63355.56;5053489;28;20076;-74
2022/06/19 06:03:49;;;;;;;16.45;3.28;;;;;;;-141.50;100.00;63355.56;5055032;28;20069;-76
2022/06/19 06:06:24;;;;;;;20.27;3.50;;;;;;;-141.50;100.00;63355.56;5052220;28;20049;-75
2022/06/19 06:08:52;;;;;;;13.77;3.13;;;;;;;-141.50;100.00;63355.56;5036398;28;20609;-75
2022/06/19 06:11:20;;;;;;;14.32;2.80;;;;;;;-141.50;100.00;63355.56;5080280;28;20475;-76
2022/06/19 06:13:47;;;;;;;12.52;3.65;;;;;;;-141.50;100.00;63355.56;5084030;28;20637;-76
2022/06/19 06:16:16;;;;;;;17.50;3.10;;;;;;;-141.50;100.00;63355.56;5073517;28;20053;-74
2022/06/19 06:18:44;;;;;;;15.95;3.00;;;;;;;-141.50;100.00;63355.56;5082919;28;20052;-77
2022/06/19 06:21:20;;;;;;;19.48;3.50;;;;;;;-141.50;100.00;63355.56;5075376;28;20135;-77
2022/06/19 06:23:51;;;;;;;13.60;3.00;;;;;;;-141.50;100.00;63355.56;5059257;28;20052;-77
2022/06/19 06:26:27;;;;;;;16.30;3.13;;;;;;;-141.50;100.00;63355.56;5074275;28;20194;-79
2022/06/19 06:28:58;;;;;;;17.08;3.38;;;;;;;-141.50;100.00;63355.56;5075358;28;20200;-78
2022/06/19 06:31:25;;;;;;;17.10;3.38;;;;;;;-141.50;100.00;63355.56;5076847;28;20052;-78
2022/06/19 06:33:56;;;;;;;19.10;3.33;;;;;;;-141.50;100.00;63355.56;5056642;28;20063;-76
2022/06/19 06:36:23;;;;;;;23.52;3.58;;;;;;;-141.50;100.00;63355.56;5071477;28;20490;-76
2022/06/19 06:38:50;;;;;;;17.35;3.55;;;;;;;-141.50;100.00;63355.56;5071717;28;20543;-77
2022/06/19 06:41:16;;;;;;;13.98;3.53;;;;;;;-141.50;100.00;63355.56;5073524;28;20102;-78
2022/06/19 06:43:45;;;;;;;16.80;3.08;;;;;;;-141.50;100.00;63355.56;5076266;28;20048;-76
2022/06/19 06:46:20;;;;;;;17.45;3.22;;;;;;;-141.50;100.00;63355.56;5074468;28;20123;-77
2022/06/19 06:48:51;;;;;;;14.50;3.10;;;;;;;-141.50;100.00;63355.56;5073024;28;20057;-76
2022/06/19 06:51:22;;;;;;;21.70;3.33;;;;;;;-141.50;100.00;63355.56;5054085;28;20060;-77
2022/06/19 06:53:49;;;;;;;15.10;3.22;;;;;;;-141.50;100.00;63355.56;5072581;28;20079;-79
2022/06/19 06:56:17;;;;;;;15.55;3.10;;;;;;;-141.50;100.00;63355.56;5073313;28;20049;-79
2022/06/19 06:58:44;;;;;;;17.88;3.35;;;;;;;-141.50;100.00;63355.56;5076538;28;20048;-77
2022/06/19 07:01:15;;;;;;;23.67;3.53;;;;;;;-141.50;100.00;63355.56;5073417;28;20169;-79
2022/06/19 07:03:43;;;;;;;20.65;3.65;;;;;;;-141.50;100.00;63355.56;5070979;28;20057;-79
2022/06/19 07:06:11;;;;;;;18.65;2.90;;;;;;;-141.50;100.00;63355.56;5085711;28;20059;-79
2022/06/19 07:08:38;;;;;;;25.15;3.25;;;;;;;-141.50;100.00;63355.56;5080675;28;20056;-80
2022/06/19 07:11:06;;;;;;;19.92;3.28;;;;;;;-141.50;100.00;63355.56;5080435;28;20090;-80
2022/06/19 07:13:32;;;;;;;23.33;3.42;;;;;;;-141.50;100.00;63355.56;5074583;28;20110;-78
2022/06/19 07:15:59;;;;;;;24.77;3.97;;;;;;;-141.50;100.00;63355.56;5082070;28;20105;-78
2022/06/19 07:18:26;;;;;;;19.63;3.80;;;;;;;-141.50;100.00;63355.56;5078909;28;20125;-80
2022/06/19 07:20:53;;;;;;;21.02;3.33;;;;;;;-141.50;100.00;63355.56;5075925;28;20049;-79
2022/06/19 07:23:19;;;;;;;22.60;3.70;;;;;;;-141.50;100.00;63355.56;5062073;28;20055;-79
2022/06/19 07:25:48;;;;;;;29.75;3.70;;;;;;;-141.50;100.00;63355.56;5055667;28;20493;-79
2022/06/19 07:28:16;;;;;;;27.10;3.45;;;;;;;-141.50;100.00;63355.56;5064238;28;20049;-79
2022/06/19 07:30:43;;;;;;;17.63;3.50;;;;;;;-141.50;100.00;63355.56;5045601;28;20065;-79
2022/06/19 07:33:09;;;;;;;21.50;3.95;;;;;;;-141.50;100.00;63355.56;5051905;28;20511;-78
2022/06/19 07:35:40;;;;;;;27.58;3.95;;;;;;;-141.50;100.00;63355.56;5063457;28;20048;-81
2022/06/19 07:38:07;;;;;;;26.27;3.85;;;;;;;-141.50;100.00;63355.56;5074967;28;20078;-80
2022/06/19 07:40:34;;;;;;;24.02;3.90;;;;;;;-141.50;100.00;63355.56;5070343;28;20530;-81
2022/06/19 07:43:05;;;;;;;29.20;4.00;;;;;;;-141.50;100.00;63355.56;5061282;28;20136;-79
2022/06/19 07:45:32;;;;;;;34.25;4.72;;;;;;;-141.50;100.00;63355.56;5072395;28;20060;-78
2022/06/19 07:50:43;;;;;;;30.92;4.20;;;;;;;-141.50;100.00;63355.56;5073291;28;20083;-77
2022/06/19 07:53:10;;;;;;;35.15;4.40;;;;;;;-141.50;100.00;63355.56;5071681;28;20509;-82
2022/06/19 07:55:39;;;;;;;28.50;4.18;;;;;;;-141.50;100.00;63355.56;5074023;28;20624;-78
2022/06/19 07:58:06;;;;;;;27.75;3.95;;;;;;;-141.50;100.00;63355.56;5073096;28;20063;-78
2022/06/19 08:00:36;;;;;;;27.92;4.75;;;;;;;-141.50;100.00;63355.56;5078558;28;20048;-80
2022/06/19 08:03:03;;;;;;;29.90;4.50;;;;;;;-141.50;100.00;63355.56;5070671;28;20053;-79
2022/06/19 08:05:33;;;;;;;36.47;4.82;;;;;;;-141.50;100.00;63355.56;5053432;28;20059;-80
2022/06/19 08:08:03;;;;;;;28.67;4.13;;;;;;;-141.50;100.00;63355.56;5065557;28;20060;-81
2022/06/19 08:10:37;;;;;;;32.30;4.32;;;;;;;-141.50;100.00;63355.56;5079785;28;20229;-82
2022/06/19 08:13:04;;;;;;;28.98;4.15;;;;;;;-141.50;100.00;63355.56;5088240;28;20094;-81
2022/06/19 08:15:33;;;;;;;29.90;4.53;;;;;;;-141.50;100.00;63355.56;5072775;28;20052;-80
2022/06/19 08:18:00;;;;;;;38.88;5.05;;;;;;;-141.50;100.00;63355.56;5081721;28;20109;-79
2022/06/19 08:20:28;;;;;;;23.52;4.50;;;;;;;-141.50;100.00;63355.56;5071787;28;20110;-82
2022/06/19 08:22:55;;;;;;;28.73;4.75;;;;;;;-141.50;100.00;63355.56;5083133;28;20543;-79
2022/06/19 08:25:23;;;;;;;27.48;4.50;;;;;;;-141.50;100.00;63355.56;5080225;28;20109;-78
2022/06/19 08:27:54;;;;;;;29.35;4.47;;;;;;;-141.50;100.00;63355.56;5083305;28;20053;-79
2022/06/19 08:30:29;;;;;;;40.13;5.38;;;;;;;-141.50;100.00;63355.56;5083751;28;20143;-82
2022/06/19 08:33:02;;;;;;;39.38;5.05;;;;;;;-141.50;100.00;63355.56;5087508;28;20498;-82
2022/06/19 08:35:32;;;;;;;36.38;4.90;;;;;;;-141.50;100.00;63355.56;5081296;28;20657;-80
2022/06/19 08:38:05;;;;;;;28.60;4.40;;;;;;;-141.50;100.00;63355.56;5085509;28;20083;-79
2022/06/19 08:40:32;;;;;;;31.77;4.75;;;;;;;-141.50;100.00;63355.56;5092955;28;20067;-80
2022/06/19 08:43:10;;;;;;;28.42;4.43;;;;;;;-141.50;100.00;63355.56;5069884;28;20142;-82
2022/06/19 08:45:46;;;;;;;29.45;4.63;;;;;;;-141.50;100.00;63355.56;5074996;28;20052;-79
2022/06/19 08:48:35;;;;;;;36.13;4.43;;;;;;;-141.50;100.00;63355.56;5067710;28;20049;-84
2022/06/19 08:51:23;;;;;;;31.67;4.45;;;;;;;-141.50;100.00;63355.56;5075737;28;20067;-81
2022/06/19 08:54:30;;;;;;;31.17;4.65;;;;;;;-141.50;100.00;63355.56;5059836;28;20475;-81
2022/06/19 08:57:21;;;;;;;29.20;5.28;;;;;;;-141.50;100.00;63355.56;5039237;28;20061;-78
2022/06/19 09:00:11;;;;;;;29.55;4.43;;;;;;;-141.50;100.00;63355.56;5082116;28;20506;-80
2022/06/19 09:02:54;;;;;;;27.17;4.53;;;;;;;-141.50;100.00;63355.56;5086142;28;20044;-78
2022/06/19 09:06:03;;;;;;;29.83;4.47;;;;;;;-141.50;100.00;63355.56;5071099;28;20196;-79
2022/06/19 09:08:47;;;;;;;30.33;4.50;;;;;;;-141.50;100.00;63355.56;5044787;28;20091;-80
2022/06/19 09:11:26;;;;;;;25.60;4.30;;;;;;;-141.50;100.00;63355.56;5064468;28;20052;-78
2022/06/19 09:14:30;;;;;;;29.77;4.47;;;;;;;-141.50;100.00;63355.56;5051347;28;20209;-78
2022/06/19 09:17:21;;;;;;;36.88;4.90;;;;;;;-141.50;100.00;63355.56;5050704;28;20045;-79
2022/06/19 09:20:11;;;;;;;31.15;4.55;;;;;;;-141.50;100.00;63355.56;5056620;28;20063;-81
2022/06/19 09:23:10;;;;;;;24.85;4.55;;;;;;;-141.50;100.00;63355.56;5049211;28;20060;-80
2022/06/19 09:25:55;;;;;;;29.63;4.93;;;;;;;-141.50;100.00;63355.56;5044507;28;20461;-82
2022/06/19 09:28:48;;;;;;;31.13;4.57;;;;;;;-141.50;100.00;63355.56;5068017;28;20052;-79
2022/06/19 09:31:35;;;;;;;30.48;4.40;;;;;;;-141.50;100.00;63355.56;5067457;28;20147;-78
2022/06/19 09:34:21;;;;;;;31.98;4.75;;;;;;;-141.50;100.00;63355.56;5071921;28;20074;-80
2022/06/19 09:37:00;;;;;;;31.35;4.88;;;;;;;-141.50;100.00;63355.56;5080419;28;20074;-82
2022/06/19 09:39:33;;;;;;;19.88;4.00;;;;;;;-141.50;100.00;63355.56;5070345;28;20044;-79
2022/06/19 09:42:15;;;;;;;33.75;4.43;;;;;;;-141.50;100.00;63355.56;5073772;28;20049;-77
2022/06/19 09:45:00;;;;;;;29.60;5.07;;;;;;;-141.50;100.00;63355.56;5074364;28;20045;-78
2022/06/19 09:47:46;;;;;;;30.08;4.80;;;;;;;-141.50;100.00;63355.56;5070249;28;20083;-79
2022/06/19 09:50:35;;;;;;;25.80;4.60;;;;;;;-141.50;100.00;63355.56;5064553;28;20494;-77
2022/06/19 09:53:46;;;;;;;32.55;4.72;;;;;;;-141.50;100.00;63355.56;5052059;28;20056;-81
2022/06/19 09:56:42;;;;;;;;;;;;;;;-141.50;100.00;63355.56;4978986;28;20058;-79
2022/06/19 09:59:12;;;;;;;35.35;5.28;;;;;;;-141.50;100.00;63355.56;5049983;28;19932;-81
2022/06/19 10:01:41;;;;;;;23.50;4.60;;;;;;;-141.50;100.00;63355.56;5052698;28;20422;-81
2022/06/19 10:04:41;;;;;;;22.80;4.78;;;;;;;-141.50;100.00;63355.56;5070210;28;20067;-81
2022/06/19 10:07:15;;;;;;;30.88;5.03;;;;;;;-141.50;100.00;63355.56;5034839;28;20100;-78
2022/06/19 10:09:46;;;;;;;;;;;;;;;-141.50;100.00;63355.56;5076984;28;20466;-78
2022/06/19 10:12:23;;;;;;;24.02;4.75;;;;;;;-141.50;100.00;63355.56;5085700;28;19924;-81
2022/06/19 10:14:51;;;;;;;27.65;5.00;;;;;;;-141.50;100.00;63355.56;5079302;28;20080;-81
2022/06/19 10:17:30;;;;;;;33.63;4.97;;;;;;;-141.50;100.00;63355.56;5069320;28;20087;-80
2022/06/19 10:20:17;;;;;;;32.40;4.28;;;;;;;-141.50;100.00;63355.56;5042800;28;20056;-80
2022/06/19 10:23:04;;;;;;;26.50;4.70;;;;;;;-141.50;100.00;63355.56;5030057;28;20444;-80
2022/06/19 10:25:45;;;;;;;25.10;4.20;;;;;;;-141.50;100.00;63355.56;5048801;28;20037;-81
2022/06/19 10:28:27;;;;;;;26.00;4.22;;;;;;;-141.50;100.00;63355.56;5064363;28;20044;-77
2022/06/19 10:31:02;;;;;;;25.60;4.40;;;;;;;-141.50;100.00;63355.56;5068869;28;20110;-78
2022/06/19 10:33:39;;;;;;;27.38;4.70;;;;;;;-141.50;100.00;63355.56;5072021;28;20052;-82
2022/06/19 10:36:30;;;;;;;27.90;5.07;;;;;;;-141.50;100.00;63355.56;5066265;28;20152;-77
2022/06/19 10:39:42;;;;;;;31.42;4.93;;;;;;;-141.50;100.00;63355.56;5064112;28;20063;-82
2022/06/19 10:42:45;;;;;;;20.00;4.20;;;;;;;-141.50;100.00;63355.56;5071434;28;20048;-81
2022/06/19 10:45:12;;;;;;;27.63;5.10;;;;;;;-141.50;100.00;63355.56;5070380;28;20124;-78
2022/06/19 10:47:50;;;;;;;35.90;4.75;;;;;;;-141.50;100.00;63355.56;5087637;28;20067;-79
2022/06/19 10:50:29;;;;;;;24.95;4.72;;;;;;;-141.50;100.00;63355.56;5073764;28;20764;-81
2022/06/19 10:52:55;;;;;;;27.20;4.90;;;;;;;-141.50;100.00;63355.56;5074005;28;20049;-81
2022/06/19 10:55:44;;;;;;;21.60;4.70;;;;;;;-141.50;100.00;63355.56;5073756;28;20391;-78
2022/06/19 10:58:22;;;;;;;26.45;4.80;;;;;;;-141.50;100.00;63355.56;5055618;28;20067;-78
2022/06/19 11:00:57;;;;;;;28.02;4.63;;;;;;;-141.50;100.00;63355.56;5061316;28;20489;-78
2022/06/19 11:04:07;;;;;;;26.52;4.82;;;;;;;-141.50;100.00;63355.56;5081261;28;20811;-79
2022/06/19 11:06:47;;;;;;;26.08;4.97;;;;;;;-141.50;100.00;63355.56;5080432;28;20048;-78
2022/06/19 11:09:19;;;;;;;25.95;4.90;;;;;;;-141.50;100.00;63355.56;5048994;28;20055;-78
2022/06/19 11:11:48;;;;;;;34.33;4.78;;;;;;;-141.50;100.00;63355.56;5081906;28;20553;-78
2022/06/19 11:14:43;;;;;;;22.40;4.47;;;;;;;-141.50;100.00;63355.56;5080572;28;20049;-80
2022/06/19 11:17:27;;;;;;;20.45;4.47;;;;;;;-141.50;100.00;63355.56;5062064;28;20040;-79
2022/06/19 11:19:54;;;;;;;22.93;4.83;;;;;;;-141.50;100.00;63355.56;5071092;28;20044;-78
2022/06/19 11:22:24;;;;;;;29.83;4.93;;;;;;;-141.50;100.00;63355.56;5087527;28;20282;-80
2022/06/19 11:24:53;;;;;;;21.83;4.60;;;;;;;-141.50;100.00;63355.56;5084058;28;20048;-78
2022/06/19 11:27:26;;;;;;;21.05;5.07;;;;;;;-141.50;100.00;63355.56;5089305;28;20066;-80
2022/06/19 11:29:56;;;;;;;22.83;5.32;;;;;;;-141.50;100.00;63355.56;5061971;28;20118;-78
2022/06/19 11:32:25;;;;;;;21.40;4.68;;;;;;;-141.50;100.00;63355.56;5097115;28;20056;-81